createdAt,value
2023-08-14T00:01:30.720Z,11.38
2023-08-14T00:03:06.072Z,11.25
2023-08-14T00:04:41.004Z,10.95
2023-08-14T00:07:50.398Z,9.98
2023-08-14T00:09:25.229Z,10.95
2023-08-14T00:12:34.509Z,10.63
2023-08-14T00:14:09.555Z,10.45
2023-08-14T00:15:44.478Z,10.40
2023-08-14T00:17:19.370Z,10.40
2023-08-14T00:20:30.430Z,10.43
2023-08-14T00:22:05.303Z,9.85
2023-08-14T00:25:14.942Z,9.77
2023-08-14T00:26:49.875Z,11.68
2023-08-14T00:28:24.809Z,11.63
2023-08-14T00:31:34.230Z,9.90
2023-08-14T00:33:09.210Z,10.02
2023-08-14T00:34:44.099Z,12.48
2023-08-14T00:36:19.011Z,11.82
2023-08-14T00:37:53.860Z,11.43
2023-08-14T00:41:03.587Z,11.45
2023-08-14T00:42:40.791Z,11.48
2023-08-14T00:44:16.297Z,11.52
2023-08-14T00:45:54.743Z,10.45
2023-08-14T00:47:29.993Z,11.07
2023-08-14T00:49:05.157Z,10.98
2023-08-14T00:50:40.394Z,10.13
2023-08-14T00:52:15.697Z,10.88
2023-08-14T00:53:52.290Z,10.82
2023-08-14T00:55:31.055Z,12.38
2023-08-14T00:57:06.240Z,11.35
2023-08-14T00:58:41.666Z,11.75
2023-08-14T01:00:16.715Z,10.65
2023-08-14T01:01:51.635Z,11.40
2023-08-14T01:03:27.245Z,11.40
2023-08-14T01:05:02.963Z,10.65
2023-08-14T01:06:38.206Z,10.55
2023-08-14T01:08:13.074Z,9.20
2023-08-14T01:11:23.106Z,10.10
2023-08-14T01:13:19.938Z,9.82
2023-08-14T01:15:04.376Z,9.48
2023-08-14T01:16:46.627Z,10.13
2023-08-14T01:18:23.787Z,9.90
2023-08-14T01:19:59.674Z,10.50
2023-08-14T01:21:47.409Z,10.20
2023-08-14T01:23:35.703Z,10.18
2023-08-14T01:25:49.915Z,10.13
2023-08-14T01:27:25.363Z,10.35
2023-08-14T01:29:03.595Z,11.25
2023-08-14T01:30:39.357Z,10.48
2023-08-14T01:32:14.242Z,9.82
2023-08-14T01:35:26.438Z,8.32
2023-08-14T01:37:11.176Z,9.98
2023-08-14T01:39:00.083Z,9.50
2023-08-14T01:40:34.913Z,9.85
2023-08-14T01:44:08.831Z,8.60
2023-08-14T01:45:43.945Z,10.40
2023-08-14T01:47:19.247Z,9.60
2023-08-14T01:48:57.342Z,9.00
2023-08-14T01:50:33.299Z,9.30
2023-08-14T01:52:08.662Z,9.45
2023-08-14T01:53:43.801Z,9.45
2023-08-14T01:55:18.677Z,8.75
2023-08-14T01:56:53.736Z,9.98
2023-08-14T01:58:28.567Z,10.02
2023-08-14T02:01:38.137Z,8.80
2023-08-14T02:03:13.738Z,9.68
2023-08-14T02:04:49.385Z,9.30
2023-08-14T02:06:25.815Z,9.73
2023-08-14T02:09:35.831Z,8.13
2023-08-14T02:11:11.438Z,9.63
2023-08-14T02:12:46.336Z,9.07
2023-08-14T02:14:21.308Z,9.90
2023-08-14T02:15:56.273Z,10.35
2023-08-14T02:17:31.208Z,11.13
2023-08-14T02:19:06.155Z,11.13
2023-08-14T02:20:51.445Z,10.95
2023-08-14T02:22:26.339Z,11.05
2023-08-14T02:24:01.170Z,10.52
2023-08-14T02:27:16.496Z,9.07
2023-08-14T02:28:51.884Z,10.40
2023-08-14T02:30:26.707Z,10.93
2023-08-14T02:33:35.908Z,10.07
2023-08-14T02:36:45.416Z,8.73
2023-08-14T02:39:54.594Z,9.38
2023-08-14T02:43:05.936Z,8.85
2023-08-14T02:44:40.838Z,9.30
2023-08-14T02:46:15.808Z,10.00
2023-08-14T02:47:50.746Z,9.20
2023-08-14T02:49:25.825Z,9.98
2023-08-14T02:51:00.880Z,9.63
2023-08-14T02:52:35.749Z,10.52
2023-08-14T02:54:10.709Z,10.20
2023-08-14T02:55:50.973Z,9.65
2023-08-14T02:57:25.811Z,10.85
2023-08-14T03:00:35.301Z,9.63
2023-08-14T03:02:10.194Z,10.27
2023-08-14T03:05:19.660Z,9.10
2023-08-14T03:06:54.707Z,10.55
2023-08-14T03:08:29.596Z,9.88
2023-08-14T03:10:04.766Z,10.57
2023-08-14T03:11:39.680Z,10.05
2023-08-14T03:13:14.714Z,10.40
2023-08-14T03:14:49.543Z,9.95
2023-08-14T03:17:58.942Z,10.75
2023-08-14T03:19:34.242Z,10.68
2023-08-14T03:21:09.272Z,10.43
2023-08-14T03:22:44.120Z,12.10
2023-08-14T03:25:53.962Z,8.32
2023-08-14T03:27:28.876Z,9.45
2023-08-14T03:29:03.814Z,9.55
2023-08-14T03:32:17.386Z,9.43
2023-08-14T03:33:52.479Z,9.40
2023-08-14T03:35:27.418Z,9.55
2023-08-14T03:38:36.751Z,9.70
2023-08-14T03:40:12.007Z,8.95
2023-08-14T03:41:46.907Z,9.73
2023-08-14T03:44:56.285Z,10.10
2023-08-14T03:46:31.116Z,11.30
2023-08-14T03:49:40.621Z,9.63
2023-08-14T03:52:52.328Z,8.82
2023-08-14T03:54:27.160Z,10.10
2023-08-14T03:57:37.097Z,9.20
2023-08-14T03:59:12.155Z,9.15
2023-08-14T04:00:48.991Z,10.32
2023-08-14T04:02:23.878Z,9.60
2023-08-14T04:05:33.372Z,9.10
2023-08-14T04:08:42.642Z,9.18
2023-08-14T04:11:52.081Z,9.20
2023-08-14T04:13:29.654Z,10.27
2023-08-14T04:15:18.499Z,10.65
2023-08-14T04:16:53.874Z,9.45
2023-08-14T04:18:29.989Z,9.63
2023-08-14T04:20:05.077Z,10.13
2023-08-14T04:21:39.918Z,9.68
2023-08-14T04:24:49.177Z,9.55
2023-08-14T04:27:58.459Z,9.75
2023-08-14T04:29:33.309Z,9.43
2023-08-14T04:32:43.101Z,10.82
2023-08-14T04:34:18.143Z,10.07
2023-08-14T04:35:53.120Z,10.30
2023-08-14T04:37:27.970Z,10.77
2023-08-14T04:40:37.877Z,10.82
2023-08-14T04:42:12.774Z,11.15
2023-08-14T04:45:21.966Z,11.25
2023-08-14T04:46:59.884Z,11.88
2023-08-14T04:48:35.560Z,11.60
2023-08-14T04:51:45.030Z,11.93
2023-08-14T04:54:54.228Z,10.57
2023-08-14T04:58:03.700Z,10.52
2023-08-14T04:59:38.755Z,11.88
2023-08-14T05:01:13.753Z,13.85
2023-08-14T05:02:48.676Z,13.40
2023-08-14T05:04:25.332Z,14.45
2023-08-14T05:06:00.423Z,13.07
2023-08-14T05:07:35.338Z,13.98
2023-08-14T05:10:54.774Z,13.32
2023-08-14T05:12:29.944Z,14.27
2023-08-14T05:14:07.927Z,13.52
2023-08-14T05:15:44.170Z,14.25
2023-08-14T05:17:19.107Z,13.23
2023-08-14T05:20:28.514Z,13.55
2023-08-14T05:23:37.666Z,12.48
2023-08-14T05:26:47.675Z,12.68
2023-08-14T05:28:22.635Z,12.52
2023-08-14T05:29:57.579Z,12.35
2023-08-14T05:31:32.484Z,13.68
2023-08-14T05:33:07.463Z,12.85
2023-08-14T05:34:42.418Z,14.05
2023-08-14T05:36:17.291Z,14.43
2023-08-14T05:39:29.079Z,13.30
2023-08-14T05:41:03.960Z,14.10
2023-08-14T05:44:13.701Z,13.63
2023-08-14T05:47:23.257Z,13.52
2023-08-14T05:48:58.116Z,14.85
2023-08-14T05:52:07.808Z,13.82
2023-08-14T05:53:42.747Z,14.02
2023-08-14T05:55:18.085Z,14.43
2023-08-14T05:56:53.316Z,14.68
2023-08-14T05:58:28.179Z,15.68
2023-08-14T06:01:37.607Z,14.73
2023-08-14T06:03:12.841Z,15.48
2023-08-14T06:04:47.807Z,14.50
2023-08-14T06:07:58.242Z,14.05
2023-08-14T06:09:33.263Z,14.68
2023-08-14T06:11:08.118Z,15.82
2023-08-14T06:12:43.421Z,15.45
2023-08-14T06:14:18.609Z,14.98
2023-08-14T06:15:53.577Z,16.88
2023-08-14T06:17:32.433Z,16.20
2023-08-14T06:19:07.674Z,16.55
2023-08-14T06:20:42.577Z,15.57
2023-08-14T06:22:19.718Z,17.27
2023-08-14T06:23:54.750Z,14.85
2023-08-14T06:27:05.935Z,14.43
2023-08-14T06:28:40.851Z,16.92
2023-08-14T06:30:16.867Z,17.08
2023-08-14T06:31:52.049Z,16.70
2023-08-14T06:33:26.871Z,16.40
2023-08-14T06:36:36.122Z,15.70
2023-08-14T06:39:45.408Z,15.15
2023-08-14T06:41:20.441Z,14.48
2023-08-14T06:42:55.311Z,15.23
2023-08-14T06:44:30.452Z,14.25
2023-08-14T06:46:05.370Z,14.52
2023-08-14T06:47:46.608Z,15.45
2023-08-14T06:49:21.499Z,13.45
2023-08-14T06:52:32.782Z,11.65
2023-08-14T06:55:49.525Z,12.65
2023-08-14T06:57:24.399Z,12.65
2023-08-14T06:58:59.488Z,12.82
2023-08-14T07:00:34.593Z,13.32
2023-08-14T07:02:09.478Z,13.68
2023-08-14T07:03:44.420Z,29.27
2023-08-14T07:05:19.586Z,14.57
2023-08-14T07:06:54.738Z,16.02
2023-08-14T07:08:30.651Z,12.45
2023-08-14T07:10:05.765Z,13.45
2023-08-14T07:11:41.853Z,12.15
2023-08-14T07:13:16.712Z,13.32
2023-08-14T07:14:51.945Z,83.63
2023-08-14T07:16:26.832Z,168.10
2023-08-14T07:18:01.907Z,32.95
2023-08-14T07:19:38.060Z,12.32
2023-08-14T07:21:13.031Z,12.65
2023-08-14T07:22:48.582Z,12.75
2023-08-14T07:24:23.475Z,13.20
2023-08-14T07:26:01.981Z,13.65
2023-08-14T07:27:36.971Z,13.27
2023-08-14T07:29:11.939Z,11.20
2023-08-14T07:30:46.918Z,10.00
2023-08-14T07:32:22.244Z,11.13
2023-08-14T07:33:57.367Z,12.05
2023-08-14T07:35:32.748Z,10.65
2023-08-14T07:37:07.782Z,10.90
2023-08-14T07:38:42.877Z,11.45
2023-08-14T07:40:18.505Z,10.95
2023-08-14T07:41:53.341Z,11.15
2023-08-14T07:43:28.410Z,11.65
2023-08-14T07:45:03.593Z,11.23
2023-08-14T07:46:38.465Z,10.52
2023-08-14T07:48:13.641Z,11.57
2023-08-14T07:49:48.547Z,12.50
2023-08-14T07:51:24.066Z,12.32
2023-08-14T07:52:59.140Z,11.32
2023-08-14T07:54:34.470Z,10.82
2023-08-14T07:56:09.774Z,10.73
2023-08-14T07:57:47.994Z,10.82
2023-08-14T07:59:23.089Z,10.95
2023-08-14T08:00:58.047Z,11.30
2023-08-14T08:02:32.886Z,11.70
2023-08-14T08:04:07.925Z,10.55
2023-08-14T08:05:42.952Z,11.18
2023-08-14T08:07:18.092Z,10.27
2023-08-14T08:08:55.107Z,10.20
2023-08-14T08:10:30.526Z,11.15
2023-08-14T08:12:05.692Z,10.48
2023-08-14T08:13:40.823Z,10.90
2023-08-14T08:15:15.745Z,12.00
2023-08-14T08:16:51.490Z,9.88
2023-08-14T08:18:26.447Z,10.45
2023-08-14T08:20:01.639Z,10.70
2023-08-14T08:21:36.698Z,10.73
2023-08-14T08:23:11.702Z,9.75
2023-08-14T08:24:46.648Z,9.68
2023-08-14T08:26:21.571Z,10.00
2023-08-14T08:27:56.457Z,9.70
2023-08-14T08:29:31.340Z,9.85
2023-08-14T08:31:06.261Z,11.05
2023-08-14T08:32:41.341Z,11.38
2023-08-14T08:34:16.256Z,10.05
2023-08-14T08:35:51.263Z,9.88
2023-08-14T08:37:26.103Z,9.85
2023-08-14T08:39:01.152Z,10.20
2023-08-14T08:40:36.876Z,9.38
2023-08-14T08:42:11.979Z,10.10
2023-08-14T08:43:47.891Z,10.63
2023-08-14T08:45:25.142Z,10.02
2023-08-14T08:47:04.801Z,9.40
2023-08-14T08:48:43.763Z,8.40
2023-08-14T08:50:18.903Z,8.93
2023-08-14T08:51:55.105Z,9.98
2023-08-14T08:53:30.539Z,8.38
2023-08-14T08:55:06.626Z,8.95
2023-08-14T08:56:42.562Z,8.20
2023-08-14T08:58:18.811Z,9.25
2023-08-14T08:59:53.927Z,7.85
2023-08-14T09:01:31.886Z,9.05
2023-08-14T09:03:07.277Z,8.85
2023-08-14T09:04:42.793Z,9.40
2023-08-14T09:06:17.757Z,9.02
2023-08-14T09:07:52.804Z,8.80
2023-08-14T09:09:27.994Z,8.80
2023-08-14T09:11:02.905Z,9.25
2023-08-14T09:12:37.783Z,9.98
2023-08-14T09:14:13.697Z,9.55
2023-08-14T09:15:49.103Z,9.05
2023-08-14T09:17:24.807Z,9.98
2023-08-14T09:19:01.430Z,64.70
2023-08-14T09:20:36.394Z,8.98
2023-08-14T09:22:12.542Z,10.57
2023-08-14T09:23:49.605Z,11.50
2023-08-14T09:25:24.494Z,9.48
2023-08-14T09:27:00.045Z,8.63
2023-08-14T09:28:35.586Z,9.20
2023-08-14T09:30:13.172Z,8.07
2023-08-14T09:31:48.208Z,8.23
2023-08-14T09:33:25.317Z,7.80
2023-08-14T09:35:05.612Z,8.48
2023-08-14T09:36:41.288Z,7.68
2023-08-14T09:38:17.360Z,9.82
2023-08-14T09:40:17.612Z,8.55
2023-08-14T09:41:52.529Z,8.07
2023-08-14T09:43:28.378Z,7.88
2023-08-14T09:45:03.724Z,6.90
2023-08-14T09:46:39.515Z,8.07
2023-08-14T09:48:14.593Z,8.07
2023-08-14T09:49:49.886Z,7.55
2023-08-14T09:51:24.796Z,7.75
2023-08-14T09:53:02.184Z,7.45
2023-08-14T09:54:37.319Z,7.10
2023-08-14T09:56:14.870Z,7.47
2023-08-14T09:57:51.233Z,7.05
2023-08-14T09:59:26.107Z,8.48
2023-08-14T10:01:01.049Z,8.52
2023-08-14T10:02:36.876Z,7.13
2023-08-14T10:04:12.302Z,6.60
2023-08-14T10:05:47.224Z,7.65
2023-08-14T10:07:25.465Z,7.88
2023-08-14T10:09:03.106Z,7.43
2023-08-14T10:10:42.660Z,9.70
2023-08-14T10:12:24.988Z,7.75
2023-08-14T10:14:09.351Z,6.82
2023-08-14T10:15:48.820Z,7.03
2023-08-14T10:17:33.715Z,7.05
2023-08-14T10:19:14.366Z,7.03
2023-08-14T10:20:51.203Z,6.28
2023-08-14T10:22:29.793Z,8.55
2023-08-14T10:24:05.639Z,9.60
2023-08-14T10:25:41.547Z,8.43
2023-08-14T10:27:17.032Z,6.60
2023-08-14T10:28:52.756Z,10.13
2023-08-14T10:30:28.588Z,7.20
2023-08-14T10:32:04.778Z,8.70
2023-08-14T10:33:40.728Z,6.78
2023-08-14T10:35:15.678Z,6.40
2023-08-14T10:36:53.452Z,7.53
2023-08-14T10:38:43.194Z,7.32
2023-08-14T10:40:25.770Z,6.32
2023-08-14T10:42:02.065Z,7.00
2023-08-14T10:43:37.373Z,11.07
2023-08-14T10:45:12.825Z,9.35
2023-08-14T10:46:48.748Z,12.07
2023-08-14T10:48:24.905Z,8.05
2023-08-14T10:50:00.356Z,7.20
2023-08-14T10:51:38.268Z,7.57
2023-08-14T10:53:13.312Z,5.97
2023-08-14T10:54:54.376Z,6.78
2023-08-14T10:56:51.161Z,6.60
2023-08-14T10:58:38.109Z,8.13
2023-08-14T11:02:07.857Z,7.93
2023-08-14T11:04:05.677Z,9.45
2023-08-14T11:05:42.246Z,7.72
2023-08-14T11:07:19.133Z,6.63
2023-08-14T11:09:22.449Z,8.48
2023-08-14T11:10:57.577Z,8.23
2023-08-14T11:12:33.790Z,7.28
2023-08-14T11:14:08.760Z,7.68
2023-08-14T11:15:45.088Z,8.02
2023-08-14T11:17:20.410Z,7.45
2023-08-14T11:18:59.213Z,8.45
2023-08-14T11:20:35.271Z,8.50
2023-08-14T11:22:10.749Z,7.85
2023-08-14T11:23:45.762Z,7.35
2023-08-14T11:25:21.587Z,7.95
2023-08-14T11:26:59.836Z,7.28
2023-08-14T11:28:35.154Z,7.32
2023-08-14T11:30:15.174Z,7.22
2023-08-14T11:31:53.849Z,7.25
2023-08-14T11:33:28.794Z,7.10
2023-08-14T11:35:05.571Z,7.15
2023-08-14T11:37:08.240Z,7.75
2023-08-14T11:38:44.402Z,8.23
2023-08-14T11:40:19.517Z,7.78
2023-08-14T11:41:54.478Z,6.18
2023-08-14T11:43:30.625Z,6.50
2023-08-14T11:45:06.956Z,6.60
2023-08-14T11:46:41.881Z,6.32
2023-08-14T11:48:17.058Z,7.28
2023-08-14T11:49:53.234Z,7.15
2023-08-14T11:51:28.204Z,6.75
2023-08-14T11:53:04.171Z,5.90
2023-08-14T11:54:39.252Z,6.60
2023-08-14T11:56:14.527Z,7.05
2023-08-14T11:57:50.237Z,6.65
2023-08-14T11:59:25.198Z,6.57
2023-08-14T12:01:00.979Z,6.47
2023-08-14T12:02:36.572Z,6.20
2023-08-14T12:04:12.783Z,6.80
2023-08-14T12:05:49.512Z,6.75
2023-08-14T12:07:24.980Z,7.00
2023-08-14T12:09:00.279Z,6.63
2023-08-14T12:10:35.290Z,6.38
2023-08-14T12:12:10.246Z,6.85
2023-08-14T12:13:53.884Z,7.10
2023-08-14T12:15:29.913Z,7.05
2023-08-14T12:17:17.296Z,7.30
2023-08-14T12:18:53.200Z,7.45
2023-08-14T12:20:35.685Z,7.57
2023-08-14T12:22:11.027Z,6.82
2023-08-14T12:23:56.587Z,6.72
2023-08-14T12:25:31.503Z,7.57
2023-08-14T12:27:06.730Z,7.10
2023-08-14T12:28:42.859Z,6.53
2023-08-14T12:30:17.744Z,7.57
2023-08-14T12:31:52.775Z,7.22
2023-08-14T12:33:28.406Z,7.38
2023-08-14T12:35:04.517Z,7.75
2023-08-14T12:36:39.880Z,7.35
2023-08-14T12:38:14.688Z,7.22
2023-08-14T12:39:53.110Z,7.10
2023-08-14T12:41:28.097Z,7.18
2023-08-14T12:43:03.278Z,6.97
2023-08-14T12:44:38.160Z,7.50
2023-08-14T12:46:14.087Z,7.72
2023-08-14T12:47:48.952Z,8.27
2023-08-14T12:49:24.170Z,6.85
2023-08-14T12:51:02.727Z,6.53
2023-08-14T12:52:38.319Z,7.18
2023-08-14T12:54:15.356Z,7.10
2023-08-14T12:55:54.950Z,7.80
2023-08-14T12:57:38.105Z,6.93
2023-08-14T12:59:13.731Z,6.82
2023-08-14T13:00:48.566Z,6.90
2023-08-14T13:02:25.051Z,6.95
2023-08-14T13:04:01.007Z,8.15
2023-08-14T13:05:38.941Z,7.65
2023-08-14T13:07:14.973Z,8.32
2023-08-14T13:08:50.030Z,7.53
2023-08-14T13:10:25.166Z,7.55
2023-08-14T13:12:01.621Z,7.90
2023-08-14T13:13:36.796Z,7.32
2023-08-14T13:15:12.197Z,7.63
2023-08-14T13:16:48.633Z,7.05
2023-08-14T13:18:24.575Z,7.35
2023-08-14T13:19:59.523Z,7.57
2023-08-14T13:21:34.392Z,7.22
2023-08-14T13:23:09.208Z,7.90
2023-08-14T13:24:44.246Z,9.55
2023-08-14T13:26:26.505Z,7.82
2023-08-14T13:28:02.748Z,8.27
2023-08-14T13:29:38.430Z,7.72
2023-08-14T13:31:13.766Z,7.82
2023-08-14T13:32:48.662Z,6.85
2023-08-14T13:34:23.544Z,7.53
2023-08-14T13:35:58.395Z,7.68
2023-08-14T13:37:33.478Z,7.97
2023-08-14T13:39:09.276Z,7.57
2023-08-14T13:40:44.706Z,8.80
2023-08-14T13:42:19.815Z,7.68
2023-08-14T13:43:55.146Z,8.07
2023-08-14T13:45:31.584Z,7.43
2023-08-14T13:47:06.738Z,7.38
2023-08-14T13:48:41.751Z,7.03
2023-08-14T13:50:22.964Z,7.55
2023-08-14T13:52:05.524Z,7.40
2023-08-14T13:53:40.352Z,9.00
2023-08-14T13:55:15.216Z,8.25
2023-08-14T13:56:50.245Z,7.32
2023-08-14T13:58:26.478Z,8.02
2023-08-14T14:00:01.471Z,7.93
2023-08-14T14:01:36.393Z,7.78
2023-08-14T14:03:11.477Z,7.82
2023-08-14T14:04:46.441Z,7.85
2023-08-14T14:06:22.136Z,7.65
2023-08-14T14:07:58.330Z,7.18
2023-08-14T14:09:33.677Z,8.95
2023-08-14T14:11:08.577Z,7.78
2023-08-14T14:12:59.775Z,7.85
2023-08-14T14:16:12.103Z,7.70
2023-08-14T14:17:47.017Z,8.20
2023-08-14T14:19:21.866Z,7.93
2023-08-14T14:20:56.898Z,7.43
2023-08-14T14:22:31.762Z,8.57
2023-08-14T14:24:07.002Z,8.65
2023-08-14T14:25:41.916Z,8.18
2023-08-14T14:27:17.177Z,8.55
2023-08-14T14:28:52.230Z,10.02
2023-08-14T14:30:27.097Z,12.10
2023-08-14T14:32:02.067Z,11.70
2023-08-14T14:33:36.941Z,10.25
2023-08-14T14:35:12.921Z,10.88
2023-08-14T14:36:47.876Z,10.68
2023-08-14T14:38:22.698Z,11.80
2023-08-14T14:39:57.833Z,11.50
2023-08-14T14:41:32.743Z,11.77
2023-08-14T14:43:07.591Z,13.55
2023-08-14T14:44:42.892Z,14.05
2023-08-14T14:46:18.023Z,13.45
2023-08-14T14:47:53.132Z,12.13
2023-08-14T14:49:27.962Z,12.63
2023-08-14T14:51:03.011Z,14.38
2023-08-14T14:52:37.885Z,14.82
2023-08-14T14:54:12.686Z,13.43
2023-08-14T14:55:47.809Z,10.98
2023-08-14T14:57:23.054Z,11.07
2023-08-14T14:58:58.196Z,11.85
2023-08-14T15:00:33.662Z,10.55
2023-08-14T15:02:19.006Z,10.20
2023-08-14T15:03:58.873Z,11.32
2023-08-14T15:05:35.796Z,13.82
2023-08-14T15:07:10.720Z,15.43
2023-08-14T15:08:45.666Z,13.02
2023-08-14T15:10:20.605Z,12.88
2023-08-14T15:11:55.654Z,11.00
2023-08-14T15:13:30.580Z,10.30
2023-08-14T15:15:05.814Z,10.38
2023-08-14T15:16:40.672Z,10.15
2023-08-14T15:18:15.805Z,10.07
2023-08-14T15:19:50.828Z,11.07
2023-08-14T15:21:25.665Z,10.00
2023-08-14T15:23:00.561Z,9.82
2023-08-14T15:24:36.934Z,10.55
2023-08-14T15:26:11.905Z,10.48
2023-08-14T15:27:46.765Z,12.40
2023-08-14T15:29:21.717Z,10.70
2023-08-14T15:31:01.467Z,10.18
2023-08-14T15:32:37.572Z,10.73
2023-08-14T15:34:12.517Z,48.83
2023-08-14T15:35:47.397Z,13.32
2023-08-14T15:37:22.563Z,13.07
2023-08-14T15:38:58.011Z,14.00
2023-08-14T15:40:33.146Z,11.90
2023-08-14T15:42:08.250Z,12.05
2023-08-14T15:43:43.593Z,10.77
2023-08-14T15:45:18.636Z,11.10
2023-08-14T15:46:53.457Z,11.77
2023-08-14T15:48:28.290Z,11.82
2023-08-14T15:50:03.435Z,10.25
2023-08-14T15:51:38.355Z,11.68
2023-08-14T15:53:13.300Z,12.52
2023-08-14T15:54:53.607Z,26.80
2023-08-14T15:56:28.942Z,24.50
2023-08-14T15:58:03.802Z,25.23
2023-08-14T15:59:38.784Z,23.55
2023-08-14T16:01:14.997Z,20.00
2023-08-14T16:02:49.971Z,21.15
2023-08-14T16:04:24.891Z,29.42
2023-08-14T16:05:59.830Z,27.48
2023-08-14T16:07:34.772Z,21.48
2023-08-14T16:09:11.279Z,17.58
2023-08-14T16:10:47.376Z,16.77
2023-08-14T16:12:22.339Z,17.58
2023-08-14T16:13:57.176Z,16.35
2023-08-14T16:15:32.424Z,16.63
2023-08-14T16:17:08.113Z,18.08
2023-08-14T16:18:44.070Z,17.08
2023-08-14T16:20:18.961Z,19.50
2023-08-14T16:21:54.003Z,20.00
2023-08-14T16:23:28.957Z,22.48
2023-08-14T16:25:03.827Z,25.33
2023-08-14T16:26:38.639Z,27.75
2023-08-14T16:28:13.529Z,26.98
2023-08-14T16:29:48.431Z,30.83
2023-08-14T16:31:23.347Z,29.23
2023-08-14T16:32:58.327Z,22.00
2023-08-14T16:34:33.473Z,17.35
2023-08-14T16:36:08.405Z,16.52
2023-08-14T16:37:43.474Z,15.18
2023-08-14T16:39:19.484Z,14.82
2023-08-14T16:40:54.893Z,16.27
2023-08-14T16:42:29.775Z,15.77
2023-08-14T16:44:04.921Z,16.05
2023-08-14T16:45:40.262Z,15.77
2023-08-14T16:47:15.267Z,16.92
2023-08-14T16:48:50.158Z,16.80
2023-08-14T16:50:25.616Z,16.95
2023-08-14T16:52:00.526Z,22.80
2023-08-14T16:53:35.566Z,27.70
2023-08-14T16:55:10.738Z,25.92
2023-08-14T16:56:45.594Z,28.02
2023-08-14T16:58:20.438Z,29.90
2023-08-14T16:59:55.560Z,32.58
2023-08-14T17:01:30.384Z,29.67
2023-08-14T17:03:06.800Z,32.92
2023-08-14T17:04:41.763Z,28.08
2023-08-14T17:06:16.856Z,32.58
2023-08-14T17:07:51.834Z,34.58
2023-08-14T17:09:26.670Z,32.55
2023-08-14T17:11:03.169Z,32.13
2023-08-14T17:12:38.170Z,29.33
2023-08-14T17:14:13.101Z,25.83
2023-08-14T17:15:47.941Z,25.50
2023-08-14T17:17:22.760Z,25.55
2023-08-14T17:18:58.496Z,25.23
2023-08-14T17:20:33.339Z,22.65
2023-08-14T17:22:08.272Z,21.58
2023-08-14T17:23:43.223Z,20.58
2023-08-14T17:25:18.307Z,18.60
2023-08-14T17:26:53.179Z,18.50
2023-08-14T17:28:29.935Z,18.58
2023-08-14T17:30:05.275Z,17.35
2023-08-14T17:31:40.195Z,17.58
2023-08-14T17:33:15.396Z,19.83
2023-08-14T17:34:50.420Z,18.73
2023-08-14T17:36:25.270Z,19.67
2023-08-14T17:38:00.368Z,22.38
2023-08-14T17:39:35.244Z,22.95
2023-08-14T17:41:10.205Z,22.90
2023-08-14T17:42:45.075Z,21.70
2023-08-14T17:44:20.031Z,26.77
2023-08-14T17:45:55.267Z,47.17
2023-08-14T17:47:32.673Z,33.42
2023-08-14T17:49:07.548Z,44.60
2023-08-14T17:50:42.568Z,25.65
2023-08-14T17:52:17.422Z,25.23
2023-08-14T17:53:54.131Z,22.60
2023-08-14T17:55:29.003Z,21.88
2023-08-14T17:57:04.456Z,22.08
2023-08-14T17:58:39.287Z,22.40
2023-08-14T18:00:14.467Z,23.27
2023-08-14T18:01:49.312Z,24.85
2023-08-14T18:03:24.614Z,24.15
2023-08-14T18:04:59.558Z,25.25
2023-08-14T18:06:34.751Z,23.73
2023-08-14T18:08:09.627Z,23.95
2023-08-14T18:09:44.712Z,23.67
2023-08-14T18:11:23.012Z,22.33
2023-08-14T18:12:57.892Z,23.67
2023-08-14T18:14:32.821Z,22.90
2023-08-14T18:16:08.683Z,21.75
2023-08-14T18:17:43.759Z,23.48
2023-08-14T18:20:56.408Z,22.92
2023-08-14T18:22:31.814Z,22.13
2023-08-14T18:24:07.114Z,22.67
2023-08-14T18:25:42.008Z,24.40
2023-08-14T18:27:16.897Z,22.95
2023-08-14T18:28:52.297Z,23.10
2023-08-14T18:30:27.335Z,23.65
2023-08-14T18:32:02.191Z,23.25
2023-08-14T18:33:37.208Z,23.45
2023-08-14T18:35:12.819Z,23.60
2023-08-14T18:36:47.825Z,24.20
2023-08-14T18:38:22.701Z,23.17
2023-08-14T18:39:57.741Z,23.60
2023-08-14T18:41:32.913Z,22.67
2023-08-14T18:43:07.884Z,22.48
2023-08-14T18:44:42.804Z,23.60
2023-08-14T18:46:17.836Z,22.23
2023-08-14T18:47:53.038Z,22.05
2023-08-14T18:49:28.042Z,22.92
2023-08-14T18:51:02.892Z,23.33
2023-08-14T18:52:38.289Z,22.67
2023-08-14T18:54:13.312Z,22.02
2023-08-14T18:55:48.197Z,21.55
2023-08-14T18:57:23.211Z,20.95
2023-08-14T18:59:00.274Z,21.17
2023-08-14T19:00:37.064Z,23.95
2023-08-14T19:02:11.944Z,22.95
2023-08-14T19:03:46.845Z,22.30
2023-08-14T19:05:21.830Z,21.55
2023-08-14T19:06:56.796Z,22.40
2023-08-14T19:08:31.715Z,22.35
2023-08-14T19:10:07.574Z,22.63
2023-08-14T19:11:42.490Z,23.02
2023-08-14T19:13:17.774Z,23.98
2023-08-14T19:14:53.281Z,22.70
2023-08-14T19:16:28.230Z,23.85
2023-08-14T19:18:03.567Z,21.95
2023-08-14T19:19:38.628Z,22.55
2023-08-14T19:21:14.251Z,20.92
2023-08-14T19:22:49.345Z,21.83
2023-08-14T19:24:24.296Z,21.08
2023-08-14T19:26:09.035Z,22.08
2023-08-14T19:27:50.088Z,22.30
2023-08-14T19:29:24.962Z,20.80
2023-08-14T19:30:59.884Z,21.58
2023-08-14T19:32:35.143Z,19.58
2023-08-14T19:34:10.133Z,20.75
2023-08-14T19:35:45.026Z,21.35
2023-08-14T19:37:20.123Z,21.45
2023-08-14T19:38:57.836Z,21.42
2023-08-14T19:40:33.742Z,21.30
2023-08-14T19:42:08.758Z,20.67
2023-08-14T19:43:43.602Z,20.80
2023-08-14T19:45:18.852Z,21.13
2023-08-14T19:46:53.701Z,21.02
2023-08-14T19:48:29.220Z,20.50
2023-08-14T19:50:04.368Z,19.50
2023-08-14T19:51:39.564Z,19.88
2023-08-14T19:53:15.789Z,20.17
2023-08-14T19:54:50.767Z,21.45
2023-08-14T19:56:25.611Z,21.88
2023-08-14T19:58:00.672Z,21.55
2023-08-14T19:59:35.766Z,22.70
2023-08-14T20:01:12.844Z,23.83
2023-08-14T20:02:51.749Z,23.50
2023-08-14T20:04:27.474Z,20.75
2023-08-14T20:06:02.356Z,20.85
2023-08-14T20:07:37.881Z,21.80
2023-08-14T20:09:13.057Z,20.13
2023-08-14T20:10:49.168Z,21.83
2023-08-14T20:12:24.366Z,21.27
2023-08-14T20:13:59.390Z,19.20
2023-08-14T20:15:43.503Z,20.85
2023-08-14T20:17:19.078Z,19.88
2023-08-14T20:18:54.774Z,19.25
2023-08-14T20:20:29.724Z,19.75
2023-08-14T20:22:04.596Z,19.60
2023-08-14T20:23:41.184Z,20.23
2023-08-14T20:25:16.155Z,21.85
2023-08-14T20:26:51.034Z,21.95
2023-08-14T20:28:25.879Z,22.40
2023-08-14T20:30:00.816Z,23.35
2023-08-14T20:31:36.358Z,25.48
2023-08-14T20:33:12.295Z,23.90
2023-08-14T20:34:47.247Z,23.42
2023-08-14T20:36:22.930Z,22.55
2023-08-14T20:37:57.834Z,21.58
2023-08-14T20:39:32.788Z,22.48
2023-08-14T20:41:07.627Z,22.45
2023-08-14T20:42:42.527Z,24.02
2023-08-14T20:44:17.401Z,22.63
2023-08-14T20:45:52.260Z,20.42
2023-08-14T20:47:27.137Z,20.42
2023-08-14T20:49:02.055Z,20.23
2023-08-14T20:50:37.729Z,20.30
2023-08-14T20:52:12.573Z,17.65
2023-08-14T20:53:47.479Z,18.30
2023-08-14T20:55:22.484Z,18.05
2023-08-14T20:56:59.112Z,19.13
2023-08-14T20:58:34.008Z,19.60
2023-08-14T21:00:09.480Z,17.77
2023-08-14T21:01:44.339Z,18.30
2023-08-14T21:03:19.332Z,17.30
2023-08-14T21:04:54.281Z,17.70
2023-08-14T21:06:29.162Z,19.80
2023-08-14T21:08:04.091Z,18.77
2023-08-14T21:09:38.937Z,18.08
2023-08-14T21:11:15.937Z,17.67
2023-08-14T21:12:50.755Z,17.23
2023-08-14T21:14:26.102Z,19.48
2023-08-14T21:16:01.282Z,20.48
2023-08-14T21:17:36.404Z,21.45
2023-08-14T21:19:11.526Z,20.17
2023-08-14T21:20:49.338Z,22.10
2023-08-14T21:22:24.376Z,22.13
2023-08-14T21:23:59.226Z,22.52
2023-08-14T21:25:45.992Z,23.02
2023-08-14T21:27:23.565Z,21.00
2023-08-14T21:28:59.366Z,20.58
2023-08-14T21:30:34.232Z,20.08
2023-08-14T21:32:09.280Z,21.10
2023-08-14T21:33:44.308Z,20.67
2023-08-14T21:35:19.485Z,21.13
2023-08-14T21:36:54.849Z,22.60
2023-08-14T21:38:30.550Z,21.67
2023-08-14T21:40:06.791Z,22.65
2023-08-14T21:41:41.824Z,22.08
2023-08-14T21:43:18.573Z,18.27
2023-08-14T21:44:53.559Z,18.95
2023-08-14T21:46:33.582Z,20.25
2023-08-14T21:48:10.055Z,23.02
2023-08-14T21:49:44.969Z,21.38
2023-08-14T21:51:19.778Z,21.25
2023-08-14T21:52:54.865Z,20.15
2023-08-14T21:54:31.792Z,19.67
2023-08-14T21:56:08.671Z,17.77
2023-08-14T21:57:43.560Z,17.50
2023-08-14T21:59:18.609Z,17.52
2023-08-14T22:00:53.566Z,16.60
2023-08-14T22:02:28.565Z,18.60
2023-08-14T22:04:03.558Z,18.15
2023-08-14T22:05:38.416Z,17.63
2023-08-14T22:07:13.421Z,18.55
2023-08-14T22:08:48.954Z,18.27
2023-08-14T22:10:24.050Z,18.25
2023-08-14T22:11:58.981Z,18.73
2023-08-14T22:13:34.019Z,19.25
2023-08-14T22:15:09.582Z,18.67
2023-08-14T22:16:44.584Z,19.17
2023-08-14T22:18:20.365Z,20.42
2023-08-14T22:19:55.284Z,19.60